Time;durP1;ratioP1;P1;durP2;ratioP2;P2;SDS_P1;SDS_P2;PMS_P1;PMS_P2;Temp;Humidity;BMP_temperature;BMP_pressure;BME280_temperature;BME280_humidity;BME280_pressure;Samples;Min_cycle;Max_cycle;Signal;HPM_P1;HPM_P2
2023/03/27 00:00:59;;;;;;;10.40;1.80;;;;;;;7.30;84.72;98794.48;109869;1277;22193;-56
2023/03/27 00:03:31;;;;;;;4.80;1.30;;;;;;;7.28;84.56;98798.27;109880;1277;22782;-57
2023/03/27 00:06:03;;;;;;;6.70;1.60;;;;;;;7.27;84.75;98802.51;109869;1277;22204;-59
2023/03/27 00:08:35;;;;;;;5.10;1.40;;;;;;;7.27;84.77;98805.48;109848;1273;22181;-58
2023/03/27 00:11:07;;;;;;;9.90;1.90;;;;;;;7.27;84.70;98797.65;109845;1277;22774;-57
2023/03/27 00:13:38;;;;;;;9.00;2.00;;;;;;;7.26;84.79;98795.22;109872;1282;22161;-58
2023/03/27 00:16:11;;;;;;;9.20;1.30;;;;;;;7.23;84.91;98791.82;109866;1267;22501;-58
2023/03/27 00:18:43;;;;;;;7.00;1.30;;;;;;;7.21;84.98;98783.94;109874;1267;22231;-59
2023/03/27 00:21:14;;;;;;;8.30;1.60;;;;;;;7.19;84.90;98775.48;109868;1277;22365;-58
2023/03/27 00:23:45;;;;;;;5.90;1.20;;;;;;;7.17;84.90;98774.65;109867;1279;23132;-57
2023/03/27 00:26:16;;;;;;;13.80;1.70;;;;;;;7.15;84.95;98771.37;109861;1267;22822;-59
2023/03/27 00:28:47;;;;;;;8.40;1.50;;;;;;;7.14;84.95;98766.24;109863;1277;22315;-59
2023/03/27 00:31:18;;;;;;;12.30;1.90;;;;;;;7.13;84.93;98761.14;105717;1277;5434335;-58
2023/03/27 00:33:49;;;;;;;9.30;1.80;;;;;;;7.12;85.08;98760.63;109867;1277;22565;-58
2023/03/27 00:36:20;;;;;;;10.70;2.00;;;;;;;7.11;85.01;98762.50;109864;1279;22305;-56
2023/03/27 00:38:52;;;;;;;9.70;1.50;;;;;;;7.10;85.12;98760.46;109845;1272;22182;-58
2023/03/27 00:41:23;;;;;;;7.50;1.60;;;;;;;7.06;85.06;98760.23;109862;1274;22222;-56
2023/03/27 00:43:55;;;;;;;10.50;1.80;;;;;;;7.03;85.13;98761.11;109869;1282;22162;-58
2023/03/27 00:46:36;;;;;;;9.00;1.50;;;;;;;7.02;85.25;98763.27;109844;1267;22237;-58
2023/03/27 00:49:11;;;;;;;11.10;1.80;;;;;;;6.99;85.33;98766.98;108524;1272;22555;-58
2023/03/27 00:51:45;;;;;;;9.80;2.20;;;;;;;6.98;85.30;98765.70;105783;1277;24702;-57
2023/03/27 00:54:24;;;;;;;7.20;1.60;;;;;;;6.99;85.28;98769.20;109884;1273;22230;-58
2023/03/27 00:56:58;;;;;;;6.60;1.70;;;;;;;6.98;85.52;98770.02;109863;1276;22148;-58
2023/03/27 00:59:33;;;;;;;8.60;1.90;;;;;;;6.97;85.56;98770.23;109866;1274;22376;-59
2023/03/27 01:02:06;;;;;;;12.80;2.30;;;;;;;6.96;85.66;98770.02;109901;1282;22220;-58
2023/03/27 01:04:38;;;;;;;10.90;2.20;;;;;;;6.97;85.81;98767.50;109883;1272;22171;-57
2023/03/27 01:07:11;;;;;;;7.50;2.00;;;;;;;6.97;85.84;98767.91;109862;1279;22205;-58
2023/03/27 01:09:44;;;;;;;9.60;1.70;;;;;;;6.98;85.76;98768.11;109864;1272;23081;-57
2023/03/27 01:12:37;;;;;;;11.00;2.80;;;;;;;6.97;85.77;98757.87;109890;1276;22320;-59
2023/03/27 01:15:32;;;;;;;8.20;1.60;;;;;;;6.96;85.89;98754.74;109825;1272;22205;-58
2023/03/27 01:18:19;;;;;;;8.10;2.00;;;;;;;6.95;86.02;98755.02;109876;1273;22227;-57
2023/03/27 01:21:31;;;;;;;7.80;1.70;;;;;;;6.93;86.23;98759.61;109846;1268;22930;-57
2023/03/27 01:24:45;;;;;;;10.90;2.40;;;;;;;6.93;86.22;98761.66;109142;1285;22247;-58
2023/03/27 01:27:24;;;;;;;6.30;1.40;;;;;;;6.91;86.25;98756.20;109061;1279;22205;-58
2023/03/27 01:30:06;;;;;;;11.10;2.80;;;;;;;6.89;86.45;98750.52;109082;1288;22197;-58
2023/03/27 01:33:11;;;;;;;7.90;2.00;;;;;;;6.86;86.54;98746.02;109060;1286;22237;-59
2023/03/27 01:36:02;;;;;;;6.00;1.60;;;;;;;6.83;86.64;98741.60;106959;1286;23009;-56
2023/03/27 01:39:04;;;;;;;8.50;2.10;;;;;;;6.81;86.71;98748.88;109089;1286;22880;-56
2023/03/27 01:41:41;;;;;;;9.40;2.10;;;;;;;6.80;86.66;98748.77;109091;1285;22524;-57
2023/03/27 01:44:17;;;;;;;15.90;2.50;;;;;;;6.79;86.73;98752.64;108939;1285;22366;-56
2023/03/27 01:46:53;;;;;;;8.90;2.20;;;;;;;6.78;86.80;98753.14;108047;1279;22541;-55
2023/03/27 01:49:28;;;;;;;10.30;1.80;;;;;;;6.75;86.94;98753.41;105049;1293;24248;-57
2023/03/27 01:52:03;;;;;;;7.60;1.60;;;;;;;6.73;87.08;98751.33;105129;1291;25304;-57
2023/03/27 01:54:40;;;;;;;9.10;2.10;;;;;;;6.71;87.06;98750.35;105074;1293;24639;-57
2023/03/27 01:57:19;;;;;;;9.60;2.60;;;;;;;6.68;87.25;98747.20;109033;1285;22287;-58
2023/03/27 01:59:55;;;;;;;10.30;1.80;;;;;;;6.66;87.21;98747.84;109469;1282;22283;-57
2023/03/27 02:02:29;;;;;;;9.00;2.30;;;;;;;6.65;87.38;98745.35;109827;1268;22287;-55
2023/03/27 02:05:05;;;;;;;9.80;2.20;;;;;;;6.64;87.40;98747.31;109843;1283;22189;-56
2023/03/27 02:07:41;;;;;;;9.20;2.30;;;;;;;6.65;87.43;98752.80;105854;1282;25242;-55
2023/03/27 02:10:17;;;;;;;8.50;2.20;;;;;;;6.65;87.52;98749.83;108787;1273;22505;-57
2023/03/27 02:12:55;;;;;;;9.00;2.50;;;;;;;6.64;87.70;98755.17;109844;1277;22343;-57
2023/03/27 02:15:30;;;;;;;15.10;2.80;;;;;;;6.63;87.86;98759.19;109790;1277;22219;-58
2023/03/27 02:18:04;;;;;;;12.40;3.00;;;;;;;6.63;87.77;98752.19;109828;1273;22996;-57
2023/03/27 02:20:37;;;;;;;11.80;3.40;;;;;;;6.66;87.66;98754.39;109832;1267;22968;-58
2023/03/27 02:23:08;;;;;;;10.40;2.90;;;;;;;6.70;87.72;98756.63;109845;1276;22184;-57
2023/03/27 02:25:41;;;;;;;12.00;3.20;;;;;;;6.73;87.73;98759.09;109818;1283;22282;-58
2023/03/27 02:28:41;;;;;;;16.30;3.90;;;;;;;6.76;87.49;98760.13;109839;1277;22166;-57
2023/03/27 02:31:24;;;;;;;14.40;4.50;;;;;;;6.77;87.38;98758.54;109818;1273;22252;-58
2023/03/27 02:34:11;;;;;;;15.90;5.00;;;;;;;6.78;87.19;98758.09;109817;1276;22934;-57
2023/03/27 02:36:53;;;;;;;20.10;6.50;;;;;;;6.80;87.06;98764.96;109808;1273;22163;-57
2023/03/27 02:39:34;;;;;;;17.10;5.60;;;;;;;6.80;86.95;98763.30;109785;1283;22230;-57
2023/03/27 02:42:09;;;;;;;17.80;5.10;;;;;;;6.78;87.00;98763.64;109808;1273;22393;-57
2023/03/27 02:44:50;;;;;;;19.90;6.90;;;;;;;6.75;87.01;98765.41;109819;1276;22125;-58
2023/03/27 02:47:28;;;;;;;20.10;6.60;;;;;;;6.75;87.09;98768.95;109824;1276;22159;-58
2023/03/27 02:50:05;;;;;;;20.10;8.00;;;;;;;6.77;87.26;98774.96;109840;1279;22208;-58
2023/03/27 02:52:41;;;;;;;21.60;7.60;;;;;;;6.76;87.14;98779.25;109828;1283;22306;-58
2023/03/27 02:55:16;;;;;;;22.10;8.40;;;;;;;6.75;87.15;98785.75;109812;1276;22144;-58
2023/03/27 02:57:50;;;;;;;24.70;9.20;;;;;;;6.78;87.13;98791.88;109844;1273;23203;-57
2023/03/27 03:00:24;;;;;;;25.60;9.20;;;;;;;6.78;87.17;98792.64;109851;1270;22185;-56
2023/03/27 03:03:04;;;;;;;27.70;9.90;;;;;;;6.77;87.06;98799.59;109819;1273;22188;-57
2023/03/27 03:05:36;;;;;;;26.80;9.80;;;;;;;6.75;86.95;98805.80;109797;1272;22199;-60
2023/03/27 03:08:09;;;;;;;26.60;9.50;;;;;;;6.73;87.38;98811.08;109841;1276;22167;-56
2023/03/27 03:10:45;;;;;;;28.00;10.70;;;;;;;6.68;87.62;98809.11;109847;1283;22909;-58
2023/03/27 03:13:17;;;;;;;27.30;10.50;;;;;;;6.63;87.67;98815.91;109851;1273;22198;-57
2023/03/27 03:15:48;;;;;;;30.00;11.40;;;;;;;6.57;87.81;98823.95;109831;1276;22397;-57
2023/03/27 03:18:19;;;;;;;29.50;12.00;;;;;;;6.52;87.94;98828.89;109861;1273;23271;-57
2023/03/27 03:20:52;;;;;;;26.10;11.40;;;;;;;6.49;87.98;98830.42;109818;1267;22369;-56
2023/03/27 03:23:24;;;;;;;32.30;12.40;;;;;;;6.47;87.98;98833.26;107968;1270;22527;-54
2023/03/27 03:25:55;;;;;;;34.50;14.20;;;;;;;6.45;88.02;98840.23;106725;1283;23038;-55
2023/03/27 03:28:26;;;;;;;34.30;14.50;;;;;;;6.44;88.16;98842.05;106248;1270;22866;-56
2023/03/27 03:30:57;;;;;;;33.30;13.70;;;;;;;6.40;88.37;98845.02;105721;1283;22542;-56
2023/03/27 03:33:29;;;;;;;34.90;16.00;;;;;;;6.36;88.12;98851.46;109831;1273;22177;-55
2023/03/27 03:36:00;;;;;;;30.50;13.60;;;;;;;6.34;88.35;98858.70;109807;1277;22263;-57
2023/03/27 03:38:34;;;;;;;31.30;13.20;;;;;;;6.28;88.18;98862.55;109074;1283;22661;-56
2023/03/27 03:41:06;;;;;;;34.40;13.40;;;;;;;6.22;88.24;98864.38;109833;1283;22194;-54
2023/03/27 03:43:37;;;;;;;27.70;10.90;;;;;;;6.15;88.19;98866.83;109850;1283;22924;-55
2023/03/27 03:46:08;;;;;;;27.50;10.60;;;;;;;6.09;88.12;98875.61;109811;1273;23074;-57
2023/03/27 03:48:40;;;;;;;25.00;10.30;;;;;;;6.05;88.07;98877.47;109787;1273;22224;-56
2023/03/27 03:51:11;;;;;;;27.50;10.10;;;;;;;6.02;87.99;98881.14;109835;1276;22276;-54
2023/03/27 03:53:42;;;;;;;26.60;10.00;;;;;;;5.99;88.00;98880.85;109775;1270;22143;-56
2023/03/27 03:56:13;;;;;;;23.50;9.70;;;;;;;5.96;87.89;98881.80;109811;1276;23476;-56
2023/03/27 03:58:44;;;;;;;26.60;9.40;;;;;;;5.90;88.01;98882.28;107133;1283;25512;-54
2023/03/27 04:01:19;;;;;;;22.50;8.40;;;;;;;5.87;87.97;98881.56;105625;1277;25687;-55
2023/03/27 04:03:50;;;;;;;20.10;8.00;;;;;;;5.84;88.00;98884.80;105574;1277;23636;-56
2023/03/27 04:06:24;;;;;;;22.30;6.20;;;;;;;5.81;87.97;98890.26;105627;1276;26602;-57
2023/03/27 04:08:55;;;;;;;29.80;8.30;;;;;;;5.69;87.53;98890.58;105598;1267;25395;-55
2023/03/27 04:11:26;;;;;;;20.90;7.00;;;;;;;5.60;87.74;98900.09;105624;1270;24283;-58
2023/03/27 04:13:56;;;;;;;24.60;6.10;;;;;;;5.53;87.68;98905.39;105697;1283;22836;-58
2023/03/27 04:16:27;;;;;;;20.30;4.70;;;;;;;5.47;87.54;98915.97;105742;1270;25515;-56
2023/03/27 04:18:59;;;;;;;16.00;3.10;;;;;;;5.41;87.54;98922.65;105717;1279;22582;-59
2023/03/27 04:21:30;;;;;;;23.80;4.00;;;;;;;5.31;87.27;98922.95;109741;1277;22299;-60
2023/03/27 04:24:02;;;;;;;20.80;3.50;;;;;;;5.22;87.48;98928.85;106839;1276;24285;-59
2023/03/27 04:26:34;;;;;;;16.80;2.30;;;;;;;5.14;87.39;98933.06;105656;1277;22589;-58
2023/03/27 04:29:09;;;;;;;12.30;2.40;;;;;;;5.00;86.92;98936.98;105639;1276;22628;-57
2023/03/27 04:31:45;;;;;;;13.40;1.70;;;;;;;4.83;86.56;98942.30;105606;1283;22534;-57
2023/03/27 04:34:19;;;;;;;8.00;1.40;;;;;;;4.70;86.78;98946.04;109811;1273;22180;-58
2023/03/27 04:36:50;;;;;;;16.10;1.80;;;;;;;4.62;87.08;98954.05;109757;1273;23291;-61
2023/03/27 04:39:23;;;;;;;11.10;1.40;;;;;;;4.51;86.93;98960.33;109856;1272;22136;-59
2023/03/27 04:41:57;;;;;;;16.40;2.10;;;;;;;4.39;86.57;98965.29;109809;1276;22185;-60
2023/03/27 04:44:28;;;;;;;11.80;2.10;;;;;;;4.26;86.60;98965.50;105839;1276;22570;-59
2023/03/27 04:47:00;;;;;;;11.60;1.40;;;;;;;4.13;86.71;98968.19;105936;1282;24037;-59
2023/03/27 04:49:37;;;;;;;7.50;1.30;;;;;;;4.01;86.80;98975.59;105881;1283;22799;-59
2023/03/27 04:52:12;;;;;;;7.10;1.00;;;;;;;3.83;86.75;98979.91;105870;1270;22538;-58
2023/03/27 04:54:44;;;;;;;8.80;1.00;;;;;;;3.70;87.12;98981.74;109868;1277;22218;-59
2023/03/27 04:57:17;;;;;;;12.00;1.30;;;;;;;3.60;87.09;98992.64;109852;1283;22956;-57
2023/03/27 04:59:49;;;;;;;7.60;1.10;;;;;;;3.49;87.40;98998.39;109827;1276;22426;-59
2023/03/27 05:02:20;;;;;;;9.40;1.10;;;;;;;3.37;87.48;99003.89;109871;1276;23778;-59
2023/03/27 05:04:51;;;;;;;11.20;1.60;;;;;;;3.29;87.69;99007.16;109862;1283;22863;-59
2023/03/27 05:07:23;;;;;;;9.40;1.30;;;;;;;3.24;87.76;99012.89;109864;1279;22564;-60
2023/03/27 05:09:54;;;;;;;8.40;1.10;;;;;;;3.19;87.73;99022.63;109831;1276;22970;-60
2023/03/27 05:12:25;;;;;;;11.40;1.50;;;;;;;3.16;87.84;99027.80;109868;1283;22285;-60
2023/03/27 05:14:56;;;;;;;9.60;1.20;;;;;;;3.05;87.97;99038.08;107232;1282;25336;-59
2023/03/27 05:17:27;;;;;;;10.00;1.80;;;;;;;2.96;88.08;99039.96;105852;1277;24221;-60
2023/03/27 05:19:58;;;;;;;12.70;1.60;;;;;;;2.92;88.20;99048.02;105790;1283;22646;-57
2023/03/27 05:22:29;;;;;;;7.20;2.00;;;;;;;2.87;88.56;99050.81;105863;1280;24290;-59
2023/03/27 05:24:59;;;;;;;7.60;1.50;;;;;;;2.83;88.72;99052.65;105936;1280;22597;-59
2023/03/27 05:27:30;;;;;;;15.50;3.60;;;;;;;2.79;88.75;99057.94;109830;1279;22144;-60
2023/03/27 05:30:02;;;;;;;10.80;1.80;;;;;;;2.77;88.89;99066.59;109815;1279;22956;-60
2023/03/27 05:32:34;;;;;;;11.30;1.90;;;;;;;2.74;88.68;99074.27;109857;1280;22163;-60
2023/03/27 05:35:05;;;;;;;10.60;1.70;;;;;;;2.71;88.68;99079.43;109860;1283;22289;-60
2023/03/27 05:37:37;;;;;;;12.60;1.80;;;;;;;2.68;88.66;99083.60;109851;1280;22154;-61
2023/03/27 05:40:10;;;;;;;11.40;1.60;;;;;;;2.64;88.68;99091.39;109840;1279;22181;-60
2023/03/27 05:42:45;;;;;;;10.50;1.80;;;;;;;2.58;88.79;99098.70;109839;1277;22177;-59
2023/03/27 05:45:16;;;;;;;6.00;1.30;;;;;;;2.51;88.81;99104.85;109861;1283;22210;-60
2023/03/27 05:47:49;;;;;;;9.90;1.60;;;;;;;2.44;89.04;99111.73;109822;1273;23077;-60
2023/03/27 05:50:22;;;;;;;6.90;1.70;;;;;;;2.35;89.32;99121.45;109858;1271;22173;-59
2023/03/27 05:52:58;;;;;;;5.70;0.90;;;;;;;2.26;89.31;99132.31;109155;1282;25375;-59
2023/03/27 05:55:29;;;;;;;8.30;1.00;;;;;;;2.12;89.02;99134.42;109827;1279;22176;-59
2023/03/27 05:58:00;;;;;;;4.30;0.70;;;;;;;2.04;89.40;99150.61;109852;1280;22224;-58
2023/03/27 06:00:33;;;;;;;4.50;1.10;;;;;;;1.95;89.31;99155.07;109863;1279;22856;-57
2023/03/27 06:03:05;;;;;;;4.00;0.70;;;;;;;1.85;89.37;99164.88;109843;1276;22196;-59
2023/03/27 06:05:39;;;;;;;4.00;0.70;;;;;;;1.75;89.38;99174.29;109851;1280;22245;-59
2023/03/27 06:08:10;;;;;;;5.60;0.70;;;;;;;1.64;89.30;99181.62;109828;1272;22309;-58
2023/03/27 06:10:43;;;;;;;3.30;0.50;;;;;;;1.56;89.68;99194.95;109841;1277;23016;-59
2023/03/27 06:13:15;;;;;;;2.70;0.70;;;;;;;1.44;89.88;99198.31;107561;1273;25243;-56
2023/03/27 06:15:46;;;;;;;5.70;0.80;;;;;;;1.34;90.07;99205.64;105859;1282;22537;-58
2023/03/27 06:18:17;;;;;;;4.50;0.90;;;;;;;1.27;90.05;99218.44;105815;1276;22657;-58
2023/03/27 06:20:47;;;;;;;7.30;0.90;;;;;;;1.21;90.20;99220.14;105829;1283;22586;-58
2023/03/27 06:23:18;;;;;;;4.70;0.80;;;;;;;1.14;90.53;99229.16;105928;1273;24250;-59
2023/03/27 06:25:50;;;;;;;3.80;0.70;;;;;;;1.06;90.94;99239.52;105850;1283;24378;-58
2023/03/27 06:28:21;;;;;;;4.20;0.90;;;;;;;1.00;91.06;99248.25;105813;1270;25366;-58
2023/03/27 06:30:52;;;;;;;4.00;0.80;;;;;;;0.94;91.36;99255.27;105794;1283;22598;-59
2023/03/27 06:33:24;;;;;;;4.10;0.80;;;;;;;0.89;91.70;99256.67;105775;1280;23172;-59
2023/03/27 06:35:58;;;;;;;6.60;0.90;;;;;;;0.83;91.70;99260.45;109814;1279;22191;-60
2023/03/27 06:38:31;;;;;;;8.50;1.30;;;;;;;0.76;92.53;99266.55;109843;1276;22160;-60
2023/03/27 06:41:03;;;;;;;7.00;1.50;;;;;;;0.71;92.22;99274.14;109883;1283;22131;-60
2023/03/27 06:43:34;;;;;;;5.20;1.40;;;;;;;0.68;92.25;99278.17;109865;1283;22175;-60
2023/03/27 06:46:05;;;;;;;9.60;1.30;;;;;;;0.65;92.71;99286.02;109854;1276;22258;-59
2023/03/27 06:48:36;;;;;;;8.30;1.80;;;;;;;0.64;92.92;99292.65;109866;1283;22156;-60
2023/03/27 06:51:07;;;;;;;7.10;1.60;;;;;;;0.61;92.95;99293.03;109857;1276;22998;-59
2023/03/27 06:53:38;;;;;;;9.30;1.60;;;;;;;0.60;92.68;99298.78;109829;1280;22525;-60
2023/03/27 06:56:10;;;;;;;5.70;1.60;;;;;;;0.59;92.91;99302.52;109832;1277;22233;-60
2023/03/27 06:58:41;;;;;;;8.70;2.20;;;;;;;0.58;93.55;99310.14;109850;1279;22188;-60
2023/03/27 07:04:18;;;;;;;7.90;1.60;;;;;;;0.60;93.52;99317.80;109499;1286;22235;-60
2023/03/27 07:06:49;;;;;;;8.20;1.60;;;;;;;0.61;93.33;99322.46;109498;1286;22365;-60
2023/03/27 07:09:20;;;;;;;8.80;1.50;;;;;;;0.63;93.70;99326.48;106297;1281;22516;-61
2023/03/27 07:11:54;;;;;;;11.10;2.00;;;;;;;0.65;94.33;99328.06;109489;1280;22211;-61
2023/03/27 07:14:25;;;;;;;6.70;1.30;;;;;;;0.68;93.60;99335.14;109513;1282;22235;-60
2023/03/27 07:16:56;;;;;;;10.40;2.00;;;;;;;0.70;93.44;99337.60;109499;1288;22223;-59
2023/03/27 07:19:27;;;;;;;10.30;2.60;;;;;;;0.70;93.66;99343.23;109531;1280;22972;-59
2023/03/27 07:21:58;;;;;;;7.60;1.90;;;;;;;0.70;93.72;99343.70;109512;1285;22186;-59
2023/03/27 07:24:29;;;;;;;10.90;2.20;;;;;;;0.72;93.86;99346.33;109496;1285;22225;-58
2023/03/27 07:27:00;;;;;;;11.10;2.40;;;;;;;0.74;94.23;99351.98;109469;1283;22164;-60
2023/03/27 07:29:31;;;;;;;9.00;2.10;;;;;;;0.76;94.66;99353.20;109491;1281;23575;-61
2023/03/27 07:32:02;;;;;;;14.60;2.50;;;;;;;0.80;94.02;99356.64;109531;1288;22309;-62
2023/03/27 07:34:35;;;;;;;15.70;2.70;;;;;;;0.85;94.13;99361.21;109491;1286;22233;-62
2023/03/27 07:37:06;;;;;;;9.70;2.30;;;;;;;0.89;94.09;99363.05;109481;1283;22213;-62
2023/03/27 07:39:37;;;;;;;14.80;3.10;;;;;;;0.92;94.18;99364.55;109547;1273;22208;-62
2023/03/27 07:42:08;;;;;;;9.70;2.30;;;;;;;0.94;94.13;99367.15;109689;1276;22310;-60
2023/03/27 07:44:40;;;;;;;7.50;1.80;;;;;;;0.97;94.12;99365.34;107391;1267;24103;-62
2023/03/27 07:47:11;;;;;;;10.40;2.30;;;;;;;1.00;94.54;99369.27;109831;1276;22361;-62
2023/03/27 07:49:45;;;;;;;11.20;1.80;;;;;;;1.03;94.44;99375.30;109876;1283;22205;-62
2023/03/27 07:52:17;;;;;;;8.50;1.50;;;;;;;1.07;93.76;99378.01;109854;1272;22150;-60
2023/03/27 07:54:48;;;;;;;8.10;1.30;;;;;;;1.13;92.67;99388.30;109858;1276;22169;-63
2023/03/27 07:57:19;;;;;;;7.80;1.40;;;;;;;1.17;91.66;99385.52;109880;1277;22184;-62
2023/03/27 07:59:56;;;;;;;9.50;1.50;;;;;;;1.20;91.53;99396.17;109848;1272;22320;-62
2023/03/27 08:02:27;;;;;;;7.60;1.60;;;;;;;1.24;91.56;99400.48;109847;1276;23051;-62
2023/03/27 08:05:03;;;;;;;7.70;1.60;;;;;;;1.27;91.07;99403.20;109888;1277;22212;-63
2023/03/27 08:07:35;;;;;;;4.90;1.00;;;;;;;1.28;90.18;99408.66;109844;1277;22206;-62
2023/03/27 08:10:09;;;;;;;8.40;1.10;;;;;;;1.31;89.96;99409.77;109877;1276;22146;-62
2023/03/27 08:12:41;;;;;;;8.80;0.80;;;;;;;1.35;90.35;99415.79;109854;1276;22164;-62
2023/03/27 08:15:13;;;;;;;4.90;0.90;;;;;;;1.39;89.44;99416.91;109851;1283;22317;-63
2023/03/27 08:17:44;;;;;;;6.20;1.30;;;;;;;1.46;89.96;99421.19;109830;1280;22211;-62
2023/03/27 08:20:16;;;;;;;5.20;1.00;;;;;;;1.53;89.61;99426.48;109828;1269;22343;-62
2023/03/27 08:22:47;;;;;;;4.80;1.20;;;;;;;1.60;89.14;99428.48;108481;1283;26602;-61
2023/03/27 08:25:21;;;;;;;6.10;1.20;;;;;;;1.64;87.73;99429.66;109796;1276;22209;-62
2023/03/27 08:27:52;;;;;;;6.20;0.60;;;;;;;1.68;87.83;99429.02;109839;1276;22867;-62
2023/03/27 08:30:23;;;;;;;9.70;0.90;;;;;;;1.73;87.65;99427.48;106975;1280;22874;-61
2023/03/27 08:32:55;;;;;;;9.30;1.20;;;;;;;1.78;87.66;99438.16;105994;1277;25640;-60
2023/03/27 08:35:27;;;;;;;6.50;1.30;;;;;;;1.81;86.48;99440.59;106096;1277;23985;-61
2023/03/27 08:37:58;;;;;;;3.30;0.80;;;;;;;1.81;85.76;99440.10;109890;1283;22142;-62
2023/03/27 08:40:33;;;;;;;6.20;0.70;;;;;;;1.81;85.44;99438.70;109849;1276;22189;-61
2023/03/27 08:43:13;;;;;;;6.60;0.80;;;;;;;1.81;85.47;99438.70;109882;1273;23117;-59
2023/03/27 08:45:53;;;;;;;5.60;0.50;;;;;;;1.83;85.69;99441.96;109867;1273;22192;-62
2023/03/27 08:48:30;;;;;;;7.10;0.90;;;;;;;1.85;84.44;99440.48;109873;1276;21779;-61
2023/03/27 08:51:05;;;;;;;3.70;0.70;;;;;;;1.86;84.78;99441.39;109834;1270;22284;-59
2023/03/27 08:53:43;;;;;;;3.20;0.60;;;;;;;1.86;82.00;99450.91;109329;1276;22531;-61
2023/03/27 08:56:17;;;;;;;3.30;0.60;;;;;;;1.86;83.60;99448.22;109809;1276;23051;-59
2023/03/27 08:58:48;;;;;;;3.90;0.70;;;;;;;1.89;83.93;99448.60;109864;1282;23128;-60
2023/03/27 09:01:28;;;;;;;4.80;0.80;;;;;;;1.90;83.54;99456.67;109872;1276;22163;-61
2023/03/27 09:04:09;;;;;;;4.20;0.70;;;;;;;1.92;84.04;99457.63;109866;1274;22039;-62
2023/03/27 09:06:48;;;;;;;10.40;1.20;;;;;;;1.95;83.57;99463.83;109864;1269;22220;-61
2023/03/27 09:09:32;;;;;;;4.90;0.90;;;;;;;1.98;82.54;99470.02;109862;1276;22134;-60
2023/03/27 09:12:14;;;;;;;3.00;0.60;;;;;;;2.00;81.48;99467.23;109862;1276;22346;-60
2023/03/27 09:14:50;;;;;;;6.90;0.70;;;;;;;2.03;83.38;99467.83;109864;1273;22432;-61
2023/03/27 09:17:26;;;;;;;4.70;0.90;;;;;;;2.09;83.66;99467.89;109853;1270;22191;-61
2023/03/27 09:20:06;;;;;;;3.90;0.60;;;;;;;2.13;82.75;99474.90;109847;1276;22459;-62
2023/03/27 09:22:44;;;;;;;6.30;1.10;;;;;;;2.15;80.98;99484.83;109827;1283;23076;-62
2023/03/27 09:25:26;;;;;;;4.20;0.80;;;;;;;2.17;82.18;99481.30;109843;1276;22357;-61
2023/03/27 09:27:57;;;;;;;6.80;0.60;;;;;;;2.21;81.66;99490.26;109853;1273;22161;-61
2023/03/27 09:30:33;;;;;;;6.70;0.80;;;;;;;2.21;81.15;99489.31;109859;1276;22963;-62
2023/03/27 09:33:11;;;;;;;3.00;0.60;;;;;;;2.22;81.46;99496.35;106969;1270;22536;-60
2023/03/27 09:35:43;;;;;;;2.80;0.70;;;;;;;2.22;80.94;99497.83;109833;1276;22174;-61
2023/03/27 09:38:28;;;;;;;7.80;1.00;;;;;;;2.23;80.94;99503.38;109866;1276;22289;-60
2023/03/27 09:41:05;;;;;;;3.90;0.70;;;;;;;2.26;81.17;99513.92;109867;1275;22224;-60
2023/03/27 09:43:42;;;;;;;5.30;0.80;;;;;;;2.26;80.17;99519.20;109872;1283;22165;-61
2023/03/27 09:46:18;;;;;;;3.60;0.90;;;;;;;2.26;80.13;99521.01;109831;1273;22222;-60
2023/03/27 09:48:58;;;;;;;4.20;0.70;;;;;;;2.26;80.00;99521.31;109853;1272;22183;-61
2023/03/27 09:51:41;;;;;;;7.30;1.00;;;;;;;2.25;79.57;99524.73;109859;1273;22925;-61
2023/03/27 09:54:13;;;;;;;5.90;1.00;;;;;;;2.24;79.60;99532.64;109844;1276;22211;-61
2023/03/27 09:56:46;;;;;;;6.70;1.00;;;;;;;2.24;79.93;99533.73;109858;1272;22233;-62
2023/03/27 09:59:29;;;;;;;6.40;1.20;;;;;;;2.24;80.12;99543.95;109860;1268;22163;-62
2023/03/27 10:02:13;;;;;;;3.40;0.70;;;;;;;2.25;80.76;99553.61;109869;1283;22207;-61
2023/03/27 10:04:59;;;;;;;5.30;0.90;;;;;;;2.26;80.52;99557.52;109851;1276;22321;-61
2023/03/27 10:07:32;;;;;;;4.70;1.00;;;;;;;2.27;79.74;99565.45;109861;1279;22170;-62
2023/03/27 10:10:11;;;;;;;2.80;0.70;;;;;;;2.28;78.80;99573.51;109848;1276;23375;-61
2023/03/27 10:13:00;;;;;;;6.00;1.20;;;;;;;2.30;79.58;99568.00;109881;1270;22223;-60
2023/03/27 10:15:38;;;;;;;5.70;0.80;;;;;;;2.34;79.55;99573.77;109854;1276;22097;-61
2023/03/27 10:18:25;;;;;;;6.50;1.60;;;;;;;2.37;78.82;99572.61;108131;1282;22583;-62
2023/03/27 10:21:02;;;;;;;3.20;0.70;;;;;;;2.38;79.14;99571.95;109852;1273;22149;-61
2023/03/27 10:23:43;;;;;;;4.90;1.00;;;;;;;2.40;80.31;99579.85;109280;1276;22661;-59
2023/03/27 10:26:38;;;;;;;3.30;0.70;;;;;;;2.41;79.91;99586.95;109834;1276;22350;-60
2023/03/27 10:29:27;;;;;;;4.00;0.90;;;;;;;2.43;78.73;99604.52;109864;1276;22152;-61
2023/03/27 10:31:59;;;;;;;5.30;0.70;;;;;;;2.45;77.81;99601.65;109863;1283;22172;-61
2023/03/27 10:34:35;;;;;;;3.60;0.70;;;;;;;2.46;76.95;99608.77;109833;1270;22206;-61
2023/03/27 10:37:22;;;;;;;4.00;0.80;;;;;;;2.45;76.38;99605.17;107804;1272;25435;-62
2023/03/27 10:39:55;;;;;;;4.20;0.80;;;;;;;2.43;76.43;99612.48;109865;1276;22242;-63
2023/03/27 10:42:31;;;;;;;5.80;0.90;;;;;;;2.44;76.79;99609.07;109873;1277;22199;-60
2023/03/27 10:45:03;;;;;;;3.30;0.70;;;;;;;2.47;78.03;99619.21;109834;1280;22221;-60
2023/03/27 10:47:35;;;;;;;4.10;0.70;;;;;;;2.48;75.96;99621.15;109831;1276;22213;-60
2023/03/27 10:50:15;;;;;;;4.90;0.90;;;;;;;2.45;75.61;99614.85;109859;1276;22261;-60
2023/03/27 10:52:58;;;;;;;2.70;0.80;;;;;;;2.43;75.40;99621.77;108427;1283;25370;-60
2023/03/27 10:55:40;;;;;;;2.40;0.70;;;;;;;2.42;75.31;99626.34;107270;1270;22565;-60
2023/03/27 10:58:23;;;;;;;4.80;0.70;;;;;;;2.43;74.57;99622.56;109846;1276;22396;-60
2023/03/27 11:01:01;;;;;;;6.50;0.80;;;;;;;2.45;75.24;99621.61;109853;1273;22916;-60
2023/03/27 11:03:38;;;;;;;3.40;0.70;;;;;;;2.51;74.63;99623.28;109284;1270;25439;-60
2023/03/27 11:06:14;;;;;;;3.50;0.80;;;;;;;2.56;74.13;99626.02;109834;1267;22131;-60
2023/03/27 11:08:54;;;;;;;4.90;0.70;;;;;;;2.60;72.85;99631.41;108959;1270;22550;-60
2023/03/27 11:11:30;;;;;;;5.10;0.80;;;;;;;2.65;73.41;99634.81;109824;1270;22205;-60
2023/03/27 11:14:05;;;;;;;5.80;0.90;;;;;;;2.67;73.51;99637.98;109857;1282;22141;-60
2023/03/27 11:16:40;;;;;;;3.50;0.80;;;;;;;2.71;73.51;99632.89;109579;1283;27442;-59
2023/03/27 11:19:27;;;;;;;3.80;0.70;;;;;;;2.74;73.34;99633.12;109785;1276;22193;-60
2023/03/27 11:22:04;;;;;;;3.90;0.80;;;;;;;2.78;73.95;99647.39;109846;1276;22196;-60
2023/03/27 11:24:40;;;;;;;2.90;0.70;;;;;;;2.81;72.09;99640.85;109847;1276;22214;-60
2023/03/27 11:27:19;;;;;;;4.30;0.80;;;;;;;2.83;71.50;99645.73;107829;1277;22555;-61
2023/03/27 11:29:58;;;;;;;4.40;0.90;;;;;;;2.90;72.00;99644.42;109836;1276;22978;-63
2023/03/27 11:32:39;;;;;;;3.70;0.70;;;;;;;2.99;71.11;99648.81;109842;1276;22214;-62
2023/03/27 11:35:15;;;;;;;5.60;0.70;;;;;;;3.10;71.42;99648.60;109812;1273;22234;-62
2023/03/27 11:37:52;;;;;;;3.70;0.50;;;;;;;3.21;71.86;99642.55;109859;1279;22357;-62
2023/03/27 11:40:28;;;;;;;4.00;0.80;;;;;;;3.31;71.03;99646.33;109849;1267;22163;-62
2023/03/27 11:43:00;;;;;;;2.00;0.40;;;;;;;3.43;71.25;99643.81;109860;1273;22158;-62
2023/03/27 11:45:42;;;;;;;6.40;0.90;;;;;;;3.52;70.24;99650.05;109863;1275;22239;-61
2023/03/27 11:48:32;;;;;;;7.30;1.00;;;;;;;3.58;69.67;99662.95;109853;1273;22213;-62
2023/03/27 11:51:09;;;;;;;2.90;0.70;;;;;;;3.57;68.90;99650.90;109832;1276;22180;-63
2023/03/27 11:53:50;;;;;;;5.60;0.80;;;;;;;3.58;69.45;99655.74;109822;1276;22197;-61
2023/03/27 11:56:31;;;;;;;3.30;0.60;;;;;;;3.59;68.94;99654.63;109833;1276;22213;-62
2023/03/27 11:59:15;;;;;;;2.80;0.60;;;;;;;3.59;68.92;99655.58;109857;1282;22181;-61
2023/03/27 12:01:53;;;;;;;8.60;1.30;;;;;;;3.59;67.97;99660.13;109864;1282;22847;-60
2023/03/27 12:04:35;;;;;;;4.20;0.50;;;;;;;3.57;68.43;99659.02;109867;1272;22196;-61
2023/03/27 12:07:19;;;;;;;5.40;0.70;;;;;;;3.56;69.14;99656.52;109767;1270;22942;-62
2023/03/27 12:10:02;;;;;;;4.50;0.90;;;;;;;3.58;69.01;99661.83;109826;1270;23473;-62